CPX784 Details

Departure: Incheon International Airport (RKSI)
Arrival: Tan Son Nhat International Airport (VVTS) at N/A
Route: BOPTA1K BOPTA Z51 BEDES Y711 MUGUS Y742 SALMI Q11 DRAKE Q11 TACLE Q12 KABAM N892 MESOX Q15 CRA W2 PTH BAOMY1F
Notes:


Current Weather Information
RKSI 191600Z 04004KT CAVOK 24/18 Q1010 NOSIG
VVTS 191600Z 24010KT 9999 FEW015 28/26 Q1008 NOSIG